sensor_id;sensor_type;location;lat;lon;timestamp;pressure;altitude;pressure_sealevel;temperature;humidity
45621;BME280;31345;51.522;10.702;2023-04-01T00:07:28;97186.72;;;8.71;100.00
45621;BME280;31345;51.522;10.702;2023-04-01T00:20:21;97179.16;;;8.88;100.00
45621;BME280;31345;51.522;10.702;2023-04-01T00:23:12;97172.72;;;8.82;100.00
45621;BME280;31345;51.522;10.702;2023-04-01T00:25:46;97174.88;;;8.86;100.00
45621;BME280;31345;51.522;10.702;2023-04-01T00:28:21;97174.22;;;8.84;100.00
45621;BME280;31345;51.522;10.702;2023-04-01T00:30:50;97176.41;;;8.89;100.00
45621;BME280;31345;51.522;10.702;2023-04-01T00:33:23;97175.59;;;8.89;100.00
45621;BME280;31345;51.522;10.702;2023-04-01T00:35:53;97173.25;;;8.95;100.00
45621;BME280;31345;51.522;10.702;2023-04-01T00:38:41;97168.28;;;9.02;100.00
45621;BME280;31345;51.522;10.702;2023-04-01T00:41:15;97166.63;;;9.11;100.00
45621;BME280;31345;51.522;10.702;2023-04-01T00:43:45;97174.19;;;9.04;100.00
45621;BME280;31345;51.522;10.702;2023-04-01T00:46:16;97173.50;;;9.02;100.00
45621;BME280;31345;51.522;10.702;2023-04-01T00:48:47;97168.84;;;9.06;100.00
45621;BME280;31345;51.522;10.702;2023-04-01T00:51:20;97173.50;;;9.02;100.00
45621;BME280;31345;51.522;10.702;2023-04-01T00:53:50;97170.38;;;8.98;100.00
45621;BME280;31345;51.522;10.702;2023-04-01T00:56:27;97168.59;;;8.99;100.00
45621;BME280;31345;51.522;10.702;2023-04-01T00:59:00;97171.88;;;9.01;100.00
45621;BME280;31345;51.522;10.702;2023-04-01T01:01:57;97174.06;;;8.96;100.00
45621;BME280;31345;51.522;10.702;2023-04-01T01:04:31;97173.25;;;8.95;100.00
45621;BME280;31345;51.522;10.702;2023-04-01T01:07:03;97165.81;;;8.91;100.00
45621;BME280;31345;51.522;10.702;2023-04-01T01:09:38;97170.78;;;8.94;100.00
45621;BME280;31345;51.522;10.702;2023-04-01T01:12:10;97174.06;;;8.96;100.00
45621;BME280;31345;51.522;10.702;2023-04-01T01:14:55;97170.38;;;8.98;100.00
45621;BME280;31345;51.522;10.702;2023-04-01T01:17:26;97169.66;;;8.96;100.00
45621;BME280;31345;51.522;10.702;2023-04-01T01:22:58;97166.91;;;8.98;100.00
45621;BME280;31345;51.522;10.702;2023-04-01T01:25:34;97165.28;;;9.07;100.00
45621;BME280;31345;51.522;10.702;2023-04-01T01:28:21;97168.28;;;9.12;100.00
45621;BME280;31345;51.522;10.702;2023-04-01T01:31:00;97163.91;;;9.13;100.00
45621;BME280;31345;51.522;10.702;2023-04-01T01:33:39;97160.47;;;9.12;100.00
45621;BME280;31345;51.522;10.702;2023-04-01T01:36:17;97164.88;;;9.11;100.00
45621;BME280;31345;51.522;10.702;2023-04-01T01:38:47;97164.72;;;9.13;100.00
45621;BME280;31345;51.522;10.702;2023-04-01T01:41:15;97162.53;;;9.08;100.00
45621;BME280;31345;51.522;10.702;2023-04-01T01:43:49;97164.16;;;9.09;100.00
45621;BME280;31345;51.522;10.702;2023-04-01T01:46:19;97163.19;;;9.10;100.00
45621;BME280;31345;51.522;10.702;2023-04-01T01:48:53;97160.72;;;9.09;100.00
45621;BME280;31345;51.522;10.702;2023-04-01T01:51:28;97163.34;;;9.09;100.00
45621;BME280;31345;51.522;10.702;2023-04-01T01:53:56;97167.75;;;9.08;100.00
45621;BME280;31345;51.522;10.702;2023-04-01T01:56:30;97159.94;;;9.08;100.00
45621;BME280;31345;51.522;10.702;2023-04-01T01:58:58;97162.81;;;9.05;100.00
45621;BME280;31345;51.522;10.702;2023-04-01T02:01:34;97165.00;;;9.10;100.00
45621;BME280;31345;51.522;10.702;2023-04-01T02:04:09;97167.63;;;9.10;100.00
45621;BME280;31345;51.522;10.702;2023-04-01T02:06:46;97170.34;;;9.08;100.00
45621;BME280;31345;51.522;10.702;2023-04-01T02:09:23;97168.56;;;9.09;100.00
45621;BME280;31345;51.522;10.702;2023-04-01T02:11:56;97165.81;;;9.10;100.00
45621;BME280;31345;51.522;10.702;2023-04-01T02:14:30;97157.16;;;9.20;100.00
45621;BME280;31345;51.522;10.702;2023-04-01T02:17:09;97163.63;;;9.16;100.00
45621;BME280;31345;51.522;10.702;2023-04-01T02:19:45;97164.56;;;9.15;100.00
45621;BME280;31345;51.522;10.702;2023-04-01T02:22:21;97167.47;;;9.11;100.00
45621;BME280;31345;51.522;10.702;2023-04-01T02:24:50;97164.56;;;9.15;100.00
45621;BME280;31345;51.522;10.702;2023-04-01T02:27:19;97159.66;;;9.11;100.00
45621;BME280;31345;51.522;10.702;2023-04-01T02:29:47;97169.66;;;9.06;100.00
45621;BME280;31345;51.522;10.702;2023-04-01T02:32:14;97175.56;;;9.08;100.00
45621;BME280;31345;51.522;10.702;2023-04-01T02:34:48;97166.22;;;9.16;100.00
45621;BME280;31345;51.522;10.702;2023-04-01T02:37:16;97175.16;;;9.13;100.00
45621;BME280;31345;51.522;10.702;2023-04-01T02:39:50;97172.81;;;9.10;100.00
45621;BME280;31345;51.522;10.702;2023-04-01T02:42:23;97170.63;;;9.15;100.00
45621;BME280;31345;51.522;10.702;2023-04-01T02:44:50;97172.25;;;9.06;100.00
45621;BME280;31345;51.522;10.702;2023-04-01T02:47:23;97173.94;;;9.07;100.00
45621;BME280;31345;51.522;10.702;2023-04-01T02:49:55;97168.03;;;9.05;100.00
45621;BME280;31345;51.522;10.702;2023-04-01T02:52:25;97173.38;;;9.04;100.00
45621;BME280;31345;51.522;10.702;2023-04-01T02:54:59;97171.88;;;9.01;100.00
45621;BME280;31345;51.522;10.702;2023-04-01T02:57:31;97171.88;;;9.01;100.00
45621;BME280;31345;51.522;10.702;2023-04-01T02:59:58;97169.97;;;9.03;100.00
45621;BME280;31345;51.522;10.702;2023-04-01T03:02:31;97177.22;;;8.99;100.00
45621;BME280;31345;51.522;10.702;2023-04-01T03:05:04;97172.25;;;9.06;100.00
45621;BME280;31345;51.522;10.702;2023-04-01T03:07:36;97180.94;;;8.97;100.00
45621;BME280;31345;51.522;10.702;2023-04-01T03:10:06;97177.34;;;8.98;100.00
45621;BME280;31345;51.522;10.702;2023-04-01T03:12:38;97174.88;;;8.96;100.00
45621;BME280;31345;51.522;10.702;2023-04-01T03:15:12;97177.47;;;8.96;100.00
45621;BME280;31345;51.522;10.702;2023-04-01T03:17:40;97178.72;;;8.92;100.00
45621;BME280;31345;51.522;10.702;2023-04-01T03:20:14;97184.22;;;8.89;100.00
45621;BME280;31345;51.522;10.702;2023-04-01T03:22:42;97179.56;;;8.93;100.00
45621;BME280;31345;51.522;10.702;2023-04-01T03:25:10;97183.94;;;8.92;100.00
45621;BME280;31345;51.522;10.702;2023-04-01T03:27:44;97184.06;;;8.91;100.00
45621;BME280;31345;51.522;10.702;2023-04-01T03:30:11;97178.47;;;8.85;100.00
45621;BME280;31345;51.522;10.702;2023-04-01T03:32:48;97175.72;;;8.87;100.00
45621;BME280;31345;51.522;10.702;2023-04-01T03:35:20;97184.50;;;8.96;100.00
45621;BME280;31345;51.522;10.702;2023-04-01T03:37:53;97184.22;;;8.89;100.00
45621;BME280;31345;51.522;10.702;2023-04-01T03:40:27;97183.66;;;8.85;100.00
45621;BME280;31345;51.522;10.702;2023-04-01T03:42:59;97194.38;;;8.82;100.00
45621;BME280;31345;51.522;10.702;2023-04-01T03:45:32;97185.03;;;8.80;100.00
45621;BME280;31345;51.522;10.702;2023-04-01T03:47:59;97192.72;;;8.81;100.00
45621;BME280;31345;51.522;10.702;2023-04-01T03:50:27;97196.97;;;8.82;100.00
45621;BME280;31345;51.522;10.702;2023-04-01T03:52:54;97188.34;;;8.82;100.00
45621;BME280;31345;51.522;10.702;2023-04-01T03:55:22;97194.94;;;8.76;100.00
45621;BME280;31345;51.522;10.702;2023-04-01T03:57:50;97199.16;;;8.77;100.00
45621;BME280;31345;51.522;10.702;2023-04-01T04:00:18;97202.19;;;8.92;100.00
45621;BME280;31345;51.522;10.702;2023-04-01T04:02:55;97193.25;;;8.95;100.00
45621;BME280;31345;51.522;10.702;2023-04-01T04:05:34;97190.38;;;8.88;100.00
45621;BME280;31345;51.522;10.702;2023-04-01T04:08:02;97191.50;;;8.85;100.00
45621;BME280;31345;51.522;10.702;2023-04-01T04:10:31;97187.91;;;8.86;100.00
45621;BME280;31345;51.522;10.702;2023-04-01T04:13:00;97197.53;;;8.86;100.00
45621;BME280;31345;51.522;10.702;2023-04-01T04:15:29;97196.84;;;8.84;100.00
45621;BME280;31345;51.522;10.702;2023-04-01T04:17:57;97196.44;;;8.89;100.00
45621;BME280;31345;51.522;10.702;2023-04-01T04:20:29;97200.94;;;8.86;100.00
45621;BME280;31345;51.522;10.702;2023-04-01T04:23:02;97197.25;;;8.89;100.00
45621;BME280;31345;51.522;10.702;2023-04-01T04:25:34;97193.69;;;8.90;100.00
45621;BME280;31345;51.522;10.702;2023-04-01T04:28:03;97195.47;;;8.99;100.00
45621;BME280;31345;51.522;10.702;2023-04-01T04:30:31;97192.19;;;8.97;100.00
45621;BME280;31345;51.522;10.702;2023-04-01T04:32:58;97199.31;;;8.95;100.00
45621;BME280;31345;51.522;10.702;2023-04-01T04:35:26;97204.91;;;8.91;100.00
45621;BME280;31345;51.522;10.702;2023-04-01T04:37:59;97205.88;;;8.90;100.00
45621;BME280;31345;51.522;10.702;2023-04-01T04:40:31;97203.00;;;8.93;100.00
45621;BME280;31345;51.522;10.702;2023-04-01T04:43:05;97207.97;;;8.86;100.00
45621;BME280;31345;51.522;10.702;2023-04-01T04:45:37;97209.47;;;8.89;100.00
45621;BME280;31345;51.522;10.702;2023-04-01T04:48:10;97206.31;;;8.85;100.00
45621;BME280;31345;51.522;10.702;2023-04-01T04:50:46;97206.59;;;8.92;100.00
45621;BME280;31345;51.522;10.702;2023-04-01T04:53:20;97210.84;;;8.93;100.00
45621;BME280;31345;51.522;10.702;2023-04-01T04:55:52;97211.38;;;8.86;100.00
45621;BME280;31345;51.522;10.702;2023-04-01T04:58:44;97212.91;;;8.89;100.00
45621;BME280;31345;51.522;10.702;2023-04-01T05:01:20;97217.41;;;8.87;100.00
45621;BME280;31345;51.522;10.702;2023-04-01T05:03:47;97216.03;;;8.83;100.00
45621;BME280;31345;51.522;10.702;2023-04-01T05:06:15;97225.75;;;8.81;100.00
45621;BME280;31345;51.522;10.702;2023-04-01T05:08:43;97215.63;;;8.88;100.00
45621;BME280;31345;51.522;10.702;2023-04-01T05:11:16;97225.38;;;8.85;100.00
45621;BME280;31345;51.522;10.702;2023-04-01T05:13:51;97223.03;;;8.92;100.00
45621;BME280;31345;51.522;10.702;2023-04-01T05:16:19;97221.38;;;8.91;100.00
45621;BME280;31345;51.522;10.702;2023-04-01T05:18:51;97220.72;;;8.99;100.00
45621;BME280;31345;51.522;10.702;2023-04-01T05:21:19;97228.94;;;8.94;100.00
45621;BME280;31345;51.522;10.702;2023-04-01T05:23:52;97226.59;;;9.01;100.00
45621;BME280;31345;51.522;10.702;2023-04-01T05:26:24;97224.84;;;8.92;100.00
45621;BME280;31345;51.522;10.702;2023-04-01T05:28:54;97238.53;;;8.84;100.00
45621;BME280;31345;51.522;10.702;2023-04-01T05:31:26;97235.78;;;8.85;100.00
45621;BME280;31345;51.522;10.702;2023-04-01T05:33:55;97235.38;;;8.80;100.00
45621;BME280;31345;51.522;10.702;2023-04-01T05:36:27;97240.31;;;8.83;100.00
45621;BME280;31345;51.522;10.702;2023-04-01T05:39:00;97233.06;;;8.87;100.00
45621;BME280;31345;51.522;10.702;2023-04-01T05:41:28;97238.13;;;8.89;100.00
45621;BME280;31345;51.522;10.702;2023-04-01T05:44:02;97238.00;;;8.90;100.00
45621;BME280;31345;51.522;10.702;2023-04-01T05:46:46;97233.31;;;8.94;100.00
45621;BME280;31345;51.522;10.702;2023-04-01T05:49:27;97234.03;;;8.96;100.00
45621;BME280;31345;51.522;10.702;2023-04-01T05:51:55;97238.25;;;8.97;100.00
45621;BME280;31345;51.522;10.702;2023-04-01T05:54:22;97238.41;;;9.05;100.00
45621;BME280;31345;51.522;10.702;2023-04-01T05:56:49;97236.50;;;9.17;100.00
45621;BME280;31345;51.522;10.702;2023-04-01T05:59:24;97231.81;;;9.21;100.00
45621;BME280;31345;51.522;10.702;2023-04-01T06:01:57;97237.16;;;9.19;100.00
45621;BME280;31345;51.522;10.702;2023-04-01T06:04:24;97235.78;;;9.25;100.00
45621;BME280;31345;51.522;10.702;2023-04-01T06:06:57;97239.75;;;9.29;100.00
45621;BME280;31345;51.522;10.702;2023-04-01T06:09:29;97246.47;;;9.32;100.00
45621;BME280;31345;51.522;10.702;2023-04-01T06:12:22;97240.97;;;9.45;100.00
45621;BME280;31345;51.522;10.702;2023-04-01T06:15:06;97243.44;;;9.46;100.00
45621;BME280;31345;51.522;10.702;2023-04-01T06:17:45;97247.28;;;9.52;100.00
45621;BME280;31345;51.522;10.702;2023-04-01T06:20:16;97253.88;;;9.56;100.00
45621;BME280;31345;51.522;10.702;2023-04-01T06:28:44;97249.25;;;9.88;100.00
45621;BME280;31345;51.522;10.702;2023-04-01T06:31:24;97251.72;;;9.89;100.00
45621;BME280;31345;51.522;10.702;2023-04-01T06:34:01;97246.75;;;9.96;100.00
45621;BME280;31345;51.522;10.702;2023-04-01T06:36:43;97259.13;;;10.04;100.00
45621;BME280;31345;51.522;10.702;2023-04-01T06:42:29;97251.91;;;10.16;100.00
45621;BME280;31345;51.522;10.702;2023-04-01T06:45:29;97257.28;;;10.14;100.00
45621;BME280;31345;51.522;10.702;2023-04-01T06:48:33;97254.28;;;10.09;100.00
45621;BME280;31345;51.522;10.702;2023-04-01T06:51:27;97253.16;;;10.12;100.00
45621;BME280;31345;51.522;10.702;2023-04-01T06:54:20;97263.38;;;10.05;100.00
45621;BME280;31345;51.522;10.702;2023-04-01T06:57:20;97258.53;;;10.10;100.00
45621;BME280;31345;51.522;10.702;2023-04-01T06:59:51;97253.16;;;10.12;100.00
45621;BME280;31345;51.522;10.702;2023-04-01T07:02:23;97254.00;;;10.02;100.00
45621;BME280;31345;51.522;10.702;2023-04-01T07:04:56;97261.47;;;10.07;100.00
45621;BME280;31345;51.522;10.702;2023-04-01T07:07:31;97264.44;;;10.12;100.00
45621;BME280;31345;51.522;10.702;2023-04-01T07:10:11;97260.63;;;10.07;100.00
45621;BME280;31345;51.522;10.702;2023-04-01T07:13:02;97266.81;;;10.06;100.00
45621;BME280;31345;51.522;10.702;2023-04-01T07:15:51;97264.88;;;9.98;100.00
45621;BME280;31345;51.522;10.702;2023-04-01T07:18:29;97266.22;;;10.02;100.00
45621;BME280;31345;51.522;10.702;2023-04-01T07:21:03;97271.06;;;9.97;100.00
45621;BME280;31345;51.522;10.702;2023-04-01T07:23:38;97273.16;;;10.03;100.00
45621;BME280;31345;51.522;10.702;2023-04-01T07:26:23;97271.59;;;10.00;100.00
45621;BME280;31345;51.522;10.702;2023-04-01T07:29:12;97275.59;;;10.05;100.00
45621;BME280;31345;51.522;10.702;2023-04-01T07:31:57;97272.69;;;9.98;100.00
45621;BME280;31345;51.522;10.702;2023-04-01T07:34:41;97274.94;;;9.93;100.00
45621;BME280;31345;51.522;10.702;2023-04-01T07:37:17;97283.16;;;9.98;100.00
45621;BME280;31345;51.522;10.702;2023-04-01T07:39:58;97283.72;;;9.92;100.00
45621;BME280;31345;51.522;10.702;2023-04-01T07:42:39;97285.91;;;9.96;100.00
45621;BME280;31345;51.522;10.702;2023-04-01T07:45:13;97296.34;;;9.96;100.00
45621;BME280;31345;51.522;10.702;2023-04-01T07:47:58;97288.94;;;9.92;100.00
45621;BME280;31345;51.522;10.702;2023-04-01T07:50:38;97292.50;;;9.91;100.00
45621;BME280;31345;51.522;10.702;2023-04-01T07:53:15;97289.09;;;9.90;100.00
45621;BME280;31345;51.522;10.702;2023-04-01T07:55:56;97296.34;;;9.96;100.00
45621;BME280;31345;51.522;10.702;2023-04-01T07:58:36;97294.97;;;9.92;100.00
45621;BME280;31345;51.522;10.702;2023-04-01T08:01:18;97294.69;;;9.95;100.00
45621;BME280;31345;51.522;10.702;2023-04-01T08:04:00;97293.31;;;10.01;100.00
45621;BME280;31345;51.522;10.702;2023-04-01T08:06:36;97297.44;;;9.94;100.00
45621;BME280;31345;51.522;10.702;2023-04-01T08:09:18;97299.38;;;10.01;100.00
45621;BME280;31345;51.522;10.702;2023-04-01T08:12:21;97301.56;;;10.06;100.00
45621;BME280;31345;51.522;10.702;2023-04-01T08:15:10;97307.34;;;10.00;100.00
45621;BME280;31345;51.522;10.702;2023-04-01T08:18:04;97302.69;;;10.04;100.00
45621;BME280;31345;51.522;10.702;2023-04-01T08:20:37;97302.91;;;10.10;100.00
45621;BME280;31345;51.522;10.702;2023-04-01T08:23:07;97308.28;;;10.09;100.00
45621;BME280;31345;51.522;10.702;2023-04-01T08:25:48;97311.72;;;10.09;100.00
45621;BME280;31345;51.522;10.702;2023-04-01T08:28:24;97320.41;;;10.10;100.00
45621;BME280;31345;51.522;10.702;2023-04-01T08:30:56;97309.22;;;10.18;100.00
45621;BME280;31345;51.522;10.702;2023-04-01T08:33:27;97311.72;;;10.09;100.00
45621;BME280;31345;51.522;10.702;2023-04-01T08:36:08;97312.13;;;10.14;100.00
45621;BME280;31345;51.522;10.702;2023-04-01T08:38:43;97310.72;;;10.20;100.00
45621;BME280;31345;51.522;10.702;2023-04-01T08:41:28;97309.19;;;10.27;100.00
45621;BME280;31345;51.522;10.702;2023-04-01T08:44:42;97317.16;;;10.26;100.00
45621;BME280;31345;51.522;10.702;2023-04-01T08:47:27;97317.09;;;10.46;100.00
45621;BME280;31345;51.522;10.702;2023-04-01T08:53:03;97311.31;;;10.52;100.00
45621;BME280;31345;51.522;10.702;2023-04-01T08:55:42;97318.16;;;10.53;100.00
45621;BME280;31345;51.522;10.702;2023-04-01T09:01:41;97314.09;;;10.69;100.00
45621;BME280;31345;51.522;10.702;2023-04-01T09:04:42;97309.78;;;10.77;100.00
45621;BME280;31345;51.522;10.702;2023-04-01T09:07:26;97312.22;;;10.79;100.00
45621;BME280;31345;51.522;10.702;2023-04-01T09:12:52;97316.22;;;10.83;100.00
45621;BME280;31345;51.522;10.702;2023-04-01T09:15:29;97314.00;;;10.88;100.00
45621;BME280;31345;51.522;10.702;2023-04-01T09:23:32;97321.19;;;10.76;100.00
45621;BME280;31345;51.522;10.702;2023-04-01T09:26:08;97323.16;;;10.74;100.00
45621;BME280;31345;51.522;10.702;2023-04-01T09:28:49;97326.88;;;10.72;100.00
45621;BME280;31345;51.522;10.702;2023-04-01T09:31:44;97328.75;;;10.79;100.00
45621;BME280;31345;51.522;10.702;2023-04-01T09:34:54;97323.91;;;10.85;100.00
45621;BME280;31345;51.522;10.702;2023-04-01T09:37:34;97332.19;;;10.80;100.00
45621;BME280;31345;51.522;10.702;2023-04-01T09:40:13;97332.41;;;10.69;100.00
45621;BME280;31345;51.522;10.702;2023-04-01T09:42:45;97336.22;;;10.74;100.00
45621;BME280;31345;51.522;10.702;2023-04-01T09:45:26;97334.13;;;10.78;100.00
45621;BME280;31345;51.522;10.702;2023-04-01T09:48:11;97343.97;;;10.94;100.00
45621;BME280;31345;51.522;10.702;2023-04-01T09:50:44;97338.34;;;11.07;100.00
45621;BME280;31345;51.522;10.702;2023-04-01T09:53:26;97335.41;;;10.92;100.00
45621;BME280;31345;51.522;10.702;2023-04-01T09:58:53;97340.78;;;10.90;100.00
45621;BME280;31345;51.522;10.702;2023-04-01T10:02:04;97350.78;;;10.77;100.00
45621;BME280;31345;51.522;10.702;2023-04-01T10:04:51;97346.34;;;10.87;100.00
45621;BME280;31345;51.522;10.702;2023-04-01T10:07:30;97349.34;;;10.92;100.00
45621;BME280;31345;51.522;10.702;2023-04-01T10:13:07;97355.84;;;11.07;100.00
45621;BME280;31345;51.522;10.702;2023-04-01T10:15:53;97354.72;;;11.09;100.00
45621;BME280;31345;51.522;10.702;2023-04-01T10:18:36;97349.41;;;11.01;100.00
45621;BME280;31345;51.522;10.702;2023-04-01T10:21:39;97354.72;;;11.09;100.00
45621;BME280;31345;51.522;10.702;2023-04-01T10:24:29;97356.59;;;11.17;100.00
45621;BME280;31345;51.522;10.702;2023-04-01T10:27:21;97352.72;;;11.21;100.00
45621;BME280;31345;51.522;10.702;2023-04-01T10:30:23;97356.84;;;11.24;100.00
45621;BME280;31345;51.522;10.702;2023-04-01T10:36:04;97348.16;;;11.23;100.00
45621;BME280;31345;51.522;10.702;2023-04-01T10:38:49;97352.47;;;11.14;100.00
45621;BME280;31345;51.522;10.702;2023-04-01T10:41:31;97353.16;;;11.16;100.00
45621;BME280;31345;51.522;10.702;2023-04-01T10:47:30;97353.16;;;11.16;100.00
45621;BME280;31345;51.522;10.702;2023-04-01T10:53:12;97362.38;;;11.21;100.00
45621;BME280;31345;51.522;10.702;2023-04-01T10:56:32;97360.56;;;11.21;100.00
45621;BME280;31345;51.522;10.702;2023-04-01T10:59:28;97354.81;;;11.54;100.00
45621;BME280;31345;51.522;10.702;2023-04-01T11:11:21;97353.03;;;12.17;100.00
45621;BME280;31345;51.522;10.702;2023-04-01T11:14:02;97344.56;;;12.24;100.00
45621;BME280;31345;51.522;10.702;2023-04-01T11:16:46;97345.97;;;11.91;100.00
45621;BME280;31345;51.522;10.702;2023-04-01T11:19:27;97355.53;;;11.82;100.00
45621;BME280;31345;51.522;10.702;2023-04-01T11:22:12;97360.44;;;11.95;100.00
45621;BME280;31345;51.522;10.702;2023-04-01T11:25:00;97351.44;;;11.80;100.00
45621;BME280;31345;51.522;10.702;2023-04-01T11:27:56;97362.56;;;11.82;100.00
45621;BME280;31345;51.522;10.702;2023-04-01T11:30:40;97357.69;;;11.87;100.00
45621;BME280;31345;51.522;10.702;2023-04-01T11:33:14;97358.00;;;11.84;100.00
45621;BME280;31345;51.522;10.702;2023-04-01T11:36:02;97357.66;;;11.61;100.00
45621;BME280;31345;51.522;10.702;2023-04-01T11:38:44;97358.41;;;11.71;100.00
45621;BME280;31345;51.522;10.702;2023-04-01T11:41:56;97364.38;;;11.81;100.00
45621;BME280;31345;51.522;10.702;2023-04-01T11:45:12;97372.88;;;11.83;100.00
45621;BME280;31345;51.522;10.702;2023-04-01T11:47:55;97364.06;;;11.85;100.00
45621;BME280;31345;51.522;10.702;2023-04-01T11:50:30;97375.31;;;11.77;100.00
45621;BME280;31345;51.522;10.702;2023-04-01T11:53:08;97382.19;;;11.60;100.00
45621;BME280;31345;51.522;10.702;2023-04-01T11:55:40;97385.03;;;11.48;100.00
45621;BME280;31345;51.522;10.702;2023-04-01T11:58:20;97386.69;;;11.49;100.00
45621;BME280;31345;51.522;10.702;2023-04-01T12:00:54;97391.47;;;11.54;100.00
45621;BME280;31345;51.522;10.702;2023-04-01T12:03:32;97384.50;;;11.63;100.00
45621;BME280;31345;51.522;10.702;2023-04-01T12:06:08;97386.44;;;11.61;100.00
45621;BME280;31345;51.522;10.702;2023-04-01T12:08:44;97393.63;;;11.77;100.00
45621;BME280;31345;51.522;10.702;2023-04-01T12:11:21;97391.38;;;11.82;100.00
45621;BME280;31345;51.522;10.702;2023-04-01T12:13:53;97393.47;;;11.78;100.00
45621;BME280;31345;51.522;10.702;2023-04-01T12:16:33;97388.63;;;11.65;100.00
45621;BME280;31345;51.522;10.702;2023-04-01T12:19:09;97394.63;;;11.57;100.00
45621;BME280;31345;51.522;10.702;2023-04-01T12:21:42;97395.63;;;11.65;100.00
45621;BME280;31345;51.522;10.702;2023-04-01T12:24:36;97399.38;;;11.80;100.00
45621;BME280;31345;51.522;10.702;2023-04-01T12:27:15;97397.94;;;11.86;100.00
45621;BME280;31345;51.522;10.702;2023-04-01T12:29:59;97400.78;;;11.93;100.00
45621;BME280;31345;51.522;10.702;2023-04-01T12:32:34;97398.88;;;11.95;100.00
45621;BME280;31345;51.522;10.702;2023-04-01T12:35:17;97400.06;;;11.82;100.00
45621;BME280;31345;51.522;10.702;2023-04-01T12:37:54;97397.72;;;11.79;100.00
45621;BME280;31345;51.522;10.702;2023-04-01T12:40:35;97398.25;;;12.01;100.00
45621;BME280;31345;51.522;10.702;2023-04-01T12:43:17;97395.63;;;12.01;100.00
45621;BME280;31345;51.522;10.702;2023-04-01T12:45:52;97398.13;;;12.29;100.00
45621;BME280;31345;51.522;10.702;2023-04-01T12:48:38;97402.69;;;12.27;100.00
45621;BME280;31345;51.522;10.702;2023-04-01T12:51:29;97398.34;;;12.36;100.00
45621;BME280;31345;51.522;10.702;2023-04-01T12:54:10;97394.78;;;12.19;99.61
45621;BME280;31345;51.522;10.702;2023-04-01T12:56:50;97397.75;;;11.98;100.00
45621;BME280;31345;51.522;10.702;2023-04-01T12:59:35;97406.00;;;11.93;100.00
45621;BME280;31345;51.522;10.702;2023-04-01T13:02:18;97410.53;;;11.64;100.00
45621;BME280;31345;51.522;10.702;2023-04-01T13:05:01;97415.00;;;11.54;100.00
45621;BME280;31345;51.522;10.702;2023-04-01T13:07:41;97425.78;;;11.51;100.00
45621;BME280;31345;51.522;10.702;2023-04-01T13:10:18;97425.63;;;11.52;100.00
45621;BME280;31345;51.522;10.702;2023-04-01T13:15:40;97421.88;;;11.73;100.00
45621;BME280;31345;51.522;10.702;2023-04-01T13:18:19;97429.53;;;11.85;100.00
45621;BME280;31345;51.522;10.702;2023-04-01T13:20:53;97432.81;;;11.87;100.00
45621;BME280;31345;51.522;10.702;2023-04-01T13:23:27;97429.16;;;11.98;100.00
45621;BME280;31345;51.522;10.702;2023-04-01T13:26:06;97433.81;;;11.86;100.00
45621;BME280;31345;51.522;10.702;2023-04-01T13:28:41;97434.91;;;12.01;100.00
45621;BME280;31345;51.522;10.702;2023-04-01T13:31:14;97429.38;;;12.04;100.00
45621;BME280;31345;51.522;10.702;2023-04-01T13:33:47;97429.84;;;12.00;100.00
45621;BME280;31345;51.522;10.702;2023-04-01T13:36:26;97433.75;;;11.95;100.00
45621;BME280;31345;51.522;10.702;2023-04-01T13:39:04;97437.22;;;11.86;100.00
45621;BME280;31345;51.522;10.702;2023-04-01T13:41:37;97437.84;;;11.80;100.00
45621;BME280;31345;51.522;10.702;2023-04-01T13:44:16;97438.50;;;11.82;100.00
45621;BME280;31345;51.522;10.702;2023-04-01T13:46:48;97443.75;;;11.82;100.00
45621;BME280;31345;51.522;10.702;2023-04-01T14:09:50;97465.56;;;11.54;100.00
45621;BME280;31345;51.522;10.702;2023-04-01T14:12:29;97467.81;;;11.49;100.00
45621;BME280;31345;51.522;10.702;2023-04-01T14:15:07;97468.69;;;11.40;100.00
45621;BME280;31345;51.522;10.702;2023-04-01T14:17:54;97471.44;;;11.38;100.00
45621;BME280;31345;51.522;10.702;2023-04-01T14:20:36;97468.41;;;11.43;100.00
45621;BME280;31345;51.522;10.702;2023-04-01T14:23:13;97467.97;;;11.20;100.00
45621;BME280;31345;51.522;10.702;2023-04-01T14:25:52;97473.88;;;11.22;100.00
45621;BME280;31345;51.522;10.702;2023-04-01T14:28:28;97472.56;;;11.36;100.00
45621;BME280;31345;51.522;10.702;2023-04-01T14:31:15;97474.56;;;11.52;100.00
45621;BME280;31345;51.522;10.702;2023-04-01T14:33:46;97474.16;;;11.47;100.00
45621;BME280;31345;51.522;10.702;2023-04-01T14:36:37;97477.03;;;11.25;100.00
45621;BME280;31345;51.522;10.702;2023-04-01T14:39:28;97477.28;;;11.32;100.00
45621;BME280;31345;51.522;10.702;2023-04-01T14:42:01;97475.78;;;11.29;100.00
45621;BME280;31345;51.522;10.702;2023-04-01T14:44:40;97480.97;;;11.39;100.00
45621;BME280;31345;51.522;10.702;2023-04-01T14:47:24;97476.63;;;11.48;100.00
45621;BME280;31345;51.522;10.702;2023-04-01T14:50:02;97475.22;;;11.26;100.00
45621;BME280;31345;51.522;10.702;2023-04-01T14:52:36;97476.47;;;11.50;100.00
45621;BME280;31345;51.522;10.702;2023-04-01T14:55:15;97479.69;;;11.43;100.00
45621;BME280;31345;51.522;10.702;2023-04-01T14:57:58;97483.38;;;11.69;100.00
45621;BME280;31345;51.522;10.702;2023-04-01T15:00:26;97487.91;;;11.49;100.00
45621;BME280;31345;51.522;10.702;2023-04-01T15:03:01;97489.66;;;11.58;100.00
45621;BME280;31345;51.522;10.702;2023-04-01T15:05:38;97490.78;;;11.55;100.00
45621;BME280;31345;51.522;10.702;2023-04-01T15:08:11;97488.63;;;11.41;100.00
45621;BME280;31345;51.522;10.702;2023-04-01T15:10:43;97496.84;;;11.28;100.00